sensor_id;sensor_type;location;lat;lon;timestamp;P1;durP1;ratioP1;P2;durP2;ratioP2
80257;SDS011;69565;37.974;23.708;2023-07-20T00:01:26;3.08;;;1.40;;
80257;SDS011;69565;37.974;23.708;2023-07-20T00:03:51;4.45;;;1.55;;
80257;SDS011;69565;37.974;23.708;2023-07-20T00:06:20;2.83;;;1.83;;
80257;SDS011;69565;37.974;23.708;2023-07-20T00:08:52;9.23;;;1.83;;
80257;SDS011;69565;37.974;23.708;2023-07-20T00:11:21;4.82;;;1.40;;
80257;SDS011;69565;37.974;23.708;2023-07-20T00:13:50;5.47;;;1.67;;
80257;SDS011;69565;37.974;23.708;2023-07-20T00:16:16;10.38;;;1.83;;
80257;SDS011;69565;37.974;23.708;2023-07-20T00:18:42;6.13;;;1.58;;
80257;SDS011;69565;37.974;23.708;2023-07-20T00:21:07;7.07;;;1.40;;
80257;SDS011;69565;37.974;23.708;2023-07-20T00:23:33;8.48;;;1.83;;
80257;SDS011;69565;37.974;23.708;2023-07-20T00:25:59;2.72;;;1.67;;
80257;SDS011;69565;37.974;23.708;2023-07-20T00:28:25;5.15;;;1.83;;
80257;SDS011;69565;37.974;23.708;2023-07-20T00:30:50;12.75;;;1.70;;
80257;SDS011;69565;37.974;23.708;2023-07-20T00:33:16;9.77;;;2.20;;
80257;SDS011;69565;37.974;23.708;2023-07-20T00:35:43;8.50;;;1.77;;
80257;SDS011;69565;37.974;23.708;2023-07-20T00:38:09;4.45;;;1.90;;
80257;SDS011;69565;37.974;23.708;2023-07-20T00:40:38;5.80;;;2.22;;
80257;SDS011;69565;37.974;23.708;2023-07-20T00:43:04;6.43;;;1.52;;
80257;SDS011;69565;37.974;23.708;2023-07-20T00:45:30;5.50;;;2.20;;
80257;SDS011;69565;37.974;23.708;2023-07-20T00:47:57;4.07;;;2.28;;
80257;SDS011;69565;37.974;23.708;2023-07-20T00:50:24;3.92;;;2.20;;
80257;SDS011;69565;37.974;23.708;2023-07-20T00:52:51;4.70;;;2.47;;
80257;SDS011;69565;37.974;23.708;2023-07-20T00:55:17;8.38;;;2.20;;
80257;SDS011;69565;37.974;23.708;2023-07-20T00:57:44;6.25;;;2.40;;
80257;SDS011;69565;37.974;23.708;2023-07-20T01:00:10;7.65;;;2.53;;
80257;SDS011;69565;37.974;23.708;2023-07-20T01:02:36;5.57;;;3.25;;
80257;SDS011;69565;37.974;23.708;2023-07-20T01:05:04;5.65;;;2.78;;
80257;SDS011;69565;37.974;23.708;2023-07-20T01:10:36;7.60;;;4.18;;
80257;SDS011;69565;37.974;23.708;2023-07-20T01:13:09;7.75;;;4.32;;
80257;SDS011;69565;37.974;23.708;2023-07-20T01:15:36;8.63;;;4.70;;
80257;SDS011;69565;37.974;23.708;2023-07-20T01:18:04;7.55;;;5.10;;
80257;SDS011;69565;37.974;23.708;2023-07-20T01:20:30;10.00;;;6.03;;
80257;SDS011;69565;37.974;23.708;2023-07-20T01:31:28;12.75;;;7.55;;
80257;SDS011;69565;37.974;23.708;2023-07-20T01:33:57;10.98;;;6.75;;
80257;SDS011;69565;37.974;23.708;2023-07-20T01:36:26;12.07;;;7.88;;
80257;SDS011;69565;37.974;23.708;2023-07-20T01:38:55;11.60;;;7.60;;
80257;SDS011;69565;37.974;23.708;2023-07-20T01:41:21;12.23;;;7.47;;
80257;SDS011;69565;37.974;23.708;2023-07-20T01:43:50;14.18;;;8.05;;
80257;SDS011;69565;37.974;23.708;2023-07-20T01:46:16;12.43;;;8.38;;
80257;SDS011;69565;37.974;23.708;2023-07-20T01:48:42;10.77;;;8.90;;
80257;SDS011;69565;37.974;23.708;2023-07-20T01:51:10;12.05;;;9.50;;
80257;SDS011;69565;37.974;23.708;2023-07-20T01:53:37;12.95;;;9.93;;
80257;SDS011;69565;37.974;23.708;2023-07-20T01:56:02;15.05;;;10.20;;
80257;SDS011;69565;37.974;23.708;2023-07-20T01:58:28;14.15;;;10.25;;
80257;SDS011;69565;37.974;23.708;2023-07-20T02:00:54;16.90;;;10.40;;
80257;SDS011;69565;37.974;23.708;2023-07-20T02:03:19;16.23;;;9.95;;
80257;SDS011;69565;37.974;23.708;2023-07-20T02:05:47;14.65;;;10.77;;
80257;SDS011;69565;37.974;23.708;2023-07-20T02:08:12;17.85;;;10.70;;
80257;SDS011;69565;37.974;23.708;2023-07-20T02:10:38;16.02;;;10.82;;
80257;SDS011;69565;37.974;23.708;2023-07-20T02:13:03;20.42;;;11.43;;
80257;SDS011;69565;37.974;23.708;2023-07-20T02:15:29;18.38;;;11.10;;
80257;SDS011;69565;37.974;23.708;2023-07-20T02:17:55;17.45;;;10.68;;
80257;SDS011;69565;37.974;23.708;2023-07-20T02:20:20;14.73;;;11.27;;
80257;SDS011;69565;37.974;23.708;2023-07-20T02:22:46;16.02;;;11.43;;
80257;SDS011;69565;37.974;23.708;2023-07-20T02:25:12;16.13;;;12.38;;
80257;SDS011;69565;37.974;23.708;2023-07-20T02:27:38;18.90;;;11.98;;
80257;SDS011;69565;37.974;23.708;2023-07-20T02:30:04;24.70;;;12.68;;
80257;SDS011;69565;37.974;23.708;2023-07-20T02:32:30;18.33;;;12.05;;
80257;SDS011;69565;37.974;23.708;2023-07-20T02:34:59;20.35;;;12.35;;
80257;SDS011;69565;37.974;23.708;2023-07-20T02:37:25;17.30;;;12.50;;
80257;SDS011;69565;37.974;23.708;2023-07-20T02:39:51;21.10;;;12.38;;
80257;SDS011;69565;37.974;23.708;2023-07-20T02:42:17;17.92;;;12.25;;
80257;SDS011;69565;37.974;23.708;2023-07-20T02:44:42;22.38;;;12.80;;
80257;SDS011;69565;37.974;23.708;2023-07-20T02:47:08;20.50;;;13.00;;
80257;SDS011;69565;37.974;23.708;2023-07-20T02:49:34;21.73;;;13.27;;
80257;SDS011;69565;37.974;23.708;2023-07-20T02:52:00;17.40;;;12.93;;
80257;SDS011;69565;37.974;23.708;2023-07-20T02:54:28;18.63;;;12.90;;
80257;SDS011;69565;37.974;23.708;2023-07-20T02:56:55;26.20;;;13.70;;
80257;SDS011;69565;37.974;23.708;2023-07-20T02:59:21;20.88;;;14.30;;
80257;SDS011;69565;37.974;23.708;2023-07-20T03:01:47;19.67;;;13.30;;
80257;SDS011;69565;37.974;23.708;2023-07-20T03:04:13;22.00;;;14.05;;
80257;SDS011;69565;37.974;23.708;2023-07-20T03:06:38;18.88;;;12.88;;
80257;SDS011;69565;37.974;23.708;2023-07-20T03:09:04;22.58;;;14.27;;
80257;SDS011;69565;37.974;23.708;2023-07-20T03:11:31;24.77;;;13.77;;
80257;SDS011;69565;37.974;23.708;2023-07-20T03:13:57;22.02;;;13.68;;
80257;SDS011;69565;37.974;23.708;2023-07-20T03:16:23;22.35;;;14.07;;
80257;SDS011;69565;37.974;23.708;2023-07-20T03:18:50;22.67;;;14.23;;
80257;SDS011;69565;37.974;23.708;2023-07-20T03:21:16;18.85;;;14.77;;
80257;SDS011;69565;37.974;23.708;2023-07-20T03:23:41;23.25;;;14.73;;
80257;SDS011;69565;37.974;23.708;2023-07-20T03:26:07;20.90;;;15.15;;
80257;SDS011;69565;37.974;23.708;2023-07-20T03:28:34;23.45;;;15.57;;
80257;SDS011;69565;37.974;23.708;2023-07-20T03:31:04;25.67;;;16.15;;
80257;SDS011;69565;37.974;23.708;2023-07-20T03:33:32;20.33;;;15.73;;
80257;SDS011;69565;37.974;23.708;2023-07-20T03:35:59;26.85;;;15.63;;
80257;SDS011;69565;37.974;23.708;2023-07-20T03:38:25;30.13;;;16.52;;
80257;SDS011;69565;37.974;23.708;2023-07-20T03:40:52;27.00;;;16.55;;
80257;SDS011;69565;37.974;23.708;2023-07-20T03:43:22;25.67;;;16.60;;
80257;SDS011;69565;37.974;23.708;2023-07-20T03:45:49;28.52;;;17.08;;
80257;SDS011;69565;37.974;23.708;2023-07-20T03:48:16;11.35;;;7.72;;
80257;SDS011;69565;37.974;23.708;2023-07-20T03:50:47;15.48;;;7.82;;
80257;SDS011;69565;37.974;23.708;2023-07-20T03:53:14;14.98;;;10.07;;
80257;SDS011;69565;37.974;23.708;2023-07-20T03:55:47;18.05;;;10.95;;
80257;SDS011;69565;37.974;23.708;2023-07-20T03:58:14;22.38;;;10.93;;
80257;SDS011;69565;37.974;23.708;2023-07-20T04:00:44;16.70;;;12.30;;
80257;SDS011;69565;37.974;23.708;2023-07-20T04:03:15;22.55;;;12.70;;
80257;SDS011;69565;37.974;23.708;2023-07-20T04:05:41;21.90;;;11.98;;
80257;SDS011;69565;37.974;23.708;2023-07-20T04:08:08;19.35;;;13.05;;
80257;SDS011;69565;37.974;23.708;2023-07-20T04:10:34;18.67;;;12.95;;
80257;SDS011;69565;37.974;23.708;2023-07-20T04:13:00;22.52;;;13.88;;
80257;SDS011;69565;37.974;23.708;2023-07-20T04:15:26;27.92;;;12.90;;
80257;SDS011;69565;37.974;23.708;2023-07-20T04:17:51;22.20;;;13.45;;
80257;SDS011;69565;37.974;23.708;2023-07-20T04:20:17;18.30;;;13.38;;
80257;SDS011;69565;37.974;23.708;2023-07-20T04:22:43;25.83;;;13.32;;
80257;SDS011;69565;37.974;23.708;2023-07-20T04:25:09;19.27;;;12.85;;
80257;SDS011;69565;37.974;23.708;2023-07-20T04:27:37;20.10;;;13.23;;
80257;SDS011;69565;37.974;23.708;2023-07-20T04:30:07;26.67;;;13.05;;
80257;SDS011;69565;37.974;23.708;2023-07-20T04:32:33;48.60;;;13.77;;
80257;SDS011;69565;37.974;23.708;2023-07-20T04:34:59;35.35;;;12.85;;
80257;SDS011;69565;37.974;23.708;2023-07-20T04:37:25;40.17;;;12.38;;
80257;SDS011;69565;37.974;23.708;2023-07-20T04:39:50;23.05;;;11.52;;
80257;SDS011;69565;37.974;23.708;2023-07-20T04:42:16;26.80;;;11.18;;
80257;SDS011;69565;37.974;23.708;2023-07-20T04:44:42;27.05;;;10.90;;
80257;SDS011;69565;37.974;23.708;2023-07-20T04:47:08;18.08;;;9.73;;
80257;SDS011;69565;37.974;23.708;2023-07-20T04:49:33;20.67;;;8.68;;
80257;SDS011;69565;37.974;23.708;2023-07-20T04:51:59;27.42;;;10.07;;
80257;SDS011;69565;37.974;23.708;2023-07-20T04:54:25;23.42;;;9.57;;
80257;SDS011;69565;37.974;23.708;2023-07-20T04:56:52;17.30;;;9.48;;
80257;SDS011;69565;37.974;23.708;2023-07-20T04:59:18;16.08;;;8.52;;
80257;SDS011;69565;37.974;23.708;2023-07-20T05:01:44;16.20;;;8.52;;
80257;SDS011;69565;37.974;23.708;2023-07-20T05:04:10;19.00;;;8.40;;
80257;SDS011;69565;37.974;23.708;2023-07-20T05:06:36;24.20;;;7.75;;
80257;SDS011;69565;37.974;23.708;2023-07-20T05:09:03;17.65;;;6.47;;
80257;SDS011;69565;37.974;23.708;2023-07-20T05:11:32;10.20;;;6.57;;
80257;SDS011;69565;37.974;23.708;2023-07-20T05:14:00;17.15;;;6.15;;
80257;SDS011;69565;37.974;23.708;2023-07-20T05:16:28;14.27;;;5.15;;
80257;SDS011;69565;37.974;23.708;2023-07-20T05:18:54;14.38;;;5.15;;
80257;SDS011;69565;37.974;23.708;2023-07-20T05:21:22;5.43;;;3.47;;
80257;SDS011;69565;37.974;23.708;2023-07-20T05:23:50;12.45;;;3.60;;
80257;SDS011;69565;37.974;23.708;2023-07-20T05:26:16;15.00;;;2.53;;
80257;SDS011;69565;37.974;23.708;2023-07-20T05:28:41;3.97;;;1.50;;
80257;SDS011;69565;37.974;23.708;2023-07-20T05:31:07;8.70;;;2.00;;
80257;SDS011;69565;37.974;23.708;2023-07-20T05:33:32;7.88;;;1.33;;
80257;SDS011;69565;37.974;23.708;2023-07-20T05:35:58;3.30;;;1.20;;
80257;SDS011;69565;37.974;23.708;2023-07-20T05:38:24;6.80;;;1.10;;
80257;SDS011;69565;37.974;23.708;2023-07-20T05:40:50;4.78;;;1.10;;
80257;SDS011;69565;37.974;23.708;2023-07-20T05:43:16;4.72;;;1.10;;
80257;SDS011;69565;37.974;23.708;2023-07-20T05:45:42;3.83;;;0.95;;
80257;SDS011;69565;37.974;23.708;2023-07-20T05:48:08;2.35;;;1.02;;
80257;SDS011;69565;37.974;23.708;2023-07-20T05:50:36;6.93;;;0.95;;
80257;SDS011;69565;37.974;23.708;2023-07-20T05:53:03;2.83;;;1.00;;
80257;SDS011;69565;37.974;23.708;2023-07-20T05:55:28;5.63;;;0.90;;
80257;SDS011;69565;37.974;23.708;2023-07-20T05:57:54;3.72;;;0.90;;
80257;SDS011;69565;37.974;23.708;2023-07-20T06:00:21;6.45;;;0.90;;
80257;SDS011;69565;37.974;23.708;2023-07-20T06:02:51;3.77;;;0.80;;
80257;SDS011;69565;37.974;23.708;2023-07-20T06:05:18;3.60;;;0.80;;
80257;SDS011;69565;37.974;23.708;2023-07-20T06:07:45;4.28;;;0.90;;
80257;SDS011;69565;37.974;23.708;2023-07-20T06:10:11;1.38;;;0.90;;
80257;SDS011;69565;37.974;23.708;2023-07-20T06:12:36;3.83;;;0.90;;
80257;SDS011;69565;37.974;23.708;2023-07-20T06:15:02;3.65;;;0.80;;
80257;SDS011;69565;37.974;23.708;2023-07-20T06:17:29;4.30;;;0.90;;
80257;SDS011;69565;37.974;23.708;2023-07-20T06:19:55;1.30;;;0.70;;
80257;SDS011;69565;37.974;23.708;2023-07-20T06:22:21;1.33;;;0.90;;
80257;SDS011;69565;37.974;23.708;2023-07-20T06:24:46;1.80;;;0.82;;
80257;SDS011;69565;37.974;23.708;2023-07-20T06:27:12;3.47;;;0.88;;
80257;SDS011;69565;37.974;23.708;2023-07-20T06:29:40;1.10;;;0.80;;
80257;SDS011;69565;37.974;23.708;2023-07-20T06:32:06;1.45;;;0.80;;
80257;SDS011;69565;37.974;23.708;2023-07-20T06:34:32;1.80;;;0.70;;
80257;SDS011;69565;37.974;23.708;2023-07-20T06:37:02;1.60;;;0.80;;
80257;SDS011;69565;37.974;23.708;2023-07-20T06:39:29;2.78;;;0.80;;
80257;SDS011;69565;37.974;23.708;2023-07-20T06:41:55;2.35;;;0.90;;
80257;SDS011;69565;37.974;23.708;2023-07-20T06:44:20;1.95;;;0.80;;
80257;SDS011;69565;37.974;23.708;2023-07-20T06:46:46;1.40;;;0.80;;
80257;SDS011;69565;37.974;23.708;2023-07-20T06:49:15;1.45;;;0.70;;
80257;SDS011;69565;37.974;23.708;2023-07-20T06:51:51;2.28;;;0.80;;
80257;SDS011;69565;37.974;23.708;2023-07-20T06:54:17;1.30;;;0.90;;
80257;SDS011;69565;37.974;23.708;2023-07-20T06:56:43;3.00;;;0.80;;
80257;SDS011;69565;37.974;23.708;2023-07-20T06:59:08;1.00;;;0.70;;
80257;SDS011;69565;37.974;23.708;2023-07-20T07:01:34;4.90;;;0.80;;
80257;SDS011;69565;37.974;23.708;2023-07-20T07:04:00;0.80;;;0.70;;
80257;SDS011;69565;37.974;23.708;2023-07-20T07:06:26;0.80;;;0.60;;
80257;SDS011;69565;37.974;23.708;2023-07-20T07:08:52;0.80;;;0.70;;
80257;SDS011;69565;37.974;23.708;2023-07-20T07:11:18;0.90;;;0.70;;
80257;SDS011;69565;37.974;23.708;2023-07-20T07:13:45;1.15;;;0.70;;
80257;SDS011;69565;37.974;23.708;2023-07-20T07:16:12;1.33;;;0.70;;
80257;SDS011;69565;37.974;23.708;2023-07-20T07:18:43;2.05;;;0.60;;
80257;SDS011;69565;37.974;23.708;2023-07-20T07:21:13;2.47;;;0.60;;
80257;SDS011;69565;37.974;23.708;2023-07-20T07:23:39;1.08;;;0.70;;
80257;SDS011;69565;37.974;23.708;2023-07-20T07:26:05;1.92;;;0.80;;
80257;SDS011;69565;37.974;23.708;2023-07-20T07:28:31;2.28;;;0.70;;
80257;SDS011;69565;37.974;23.708;2023-07-20T07:30:57;4.63;;;0.70;;
80257;SDS011;69565;37.974;23.708;2023-07-20T07:33:23;2.00;;;0.70;;
80257;SDS011;69565;37.974;23.708;2023-07-20T07:35:50;1.10;;;0.80;;
80257;SDS011;69565;37.974;23.708;2023-07-20T07:38:17;3.05;;;0.80;;
80257;SDS011;69565;37.974;23.708;2023-07-20T07:40:43;3.63;;;1.00;;
80257;SDS011;69565;37.974;23.708;2023-07-20T07:43:09;2.10;;;0.80;;
80257;SDS011;69565;37.974;23.708;2023-07-20T07:45:35;2.75;;;0.82;;
80257;SDS011;69565;37.974;23.708;2023-07-20T07:48:04;3.40;;;0.90;;
80257;SDS011;69565;37.974;23.708;2023-07-20T07:50:30;4.88;;;1.10;;
80257;SDS011;69565;37.974;23.708;2023-07-20T07:52:56;5.63;;;1.13;;
80257;SDS011;69565;37.974;23.708;2023-07-20T07:55:25;1.45;;;0.98;;
80257;SDS011;69565;37.974;23.708;2023-07-20T07:57:54;3.85;;;1.00;;
80257;SDS011;69565;37.974;23.708;2023-07-20T08:00:19;3.63;;;1.00;;
80257;SDS011;69565;37.974;23.708;2023-07-20T08:02:45;1.50;;;0.90;;
80257;SDS011;69565;37.974;23.708;2023-07-20T08:05:13;2.38;;;1.00;;
80257;SDS011;69565;37.974;23.708;2023-07-20T08:07:39;1.40;;;1.00;;
80257;SDS011;69565;37.974;23.708;2023-07-20T08:10:05;3.10;;;1.00;;
80257;SDS011;69565;37.974;23.708;2023-07-20T08:12:32;3.80;;;1.00;;
80257;SDS011;69565;37.974;23.708;2023-07-20T08:14:57;4.00;;;1.00;;
80257;SDS011;69565;37.974;23.708;2023-07-20T08:17:26;2.83;;;0.90;;
80257;SDS011;69565;37.974;23.708;2023-07-20T08:19:52;1.40;;;1.00;;
80257;SDS011;69565;37.974;23.708;2023-07-20T08:22:18;2.20;;;1.00;;
80257;SDS011;69565;37.974;23.708;2023-07-20T08:24:44;2.42;;;0.90;;
80257;SDS011;69565;37.974;23.708;2023-07-20T08:27:10;13.70;;;1.02;;
80257;SDS011;69565;37.974;23.708;2023-07-20T08:29:36;1.80;;;1.00;;
80257;SDS011;69565;37.974;23.708;2023-07-20T08:32:02;2.80;;;0.80;;
80257;SDS011;69565;37.974;23.708;2023-07-20T08:34:31;2.17;;;0.90;;
80257;SDS011;69565;37.974;23.708;2023-07-20T08:36:58;1.30;;;0.82;;
80257;SDS011;69565;37.974;23.708;2023-07-20T08:39:24;1.58;;;0.80;;
80257;SDS011;69565;37.974;23.708;2023-07-20T08:41:50;2.10;;;0.98;;
80257;SDS011;69565;37.974;23.708;2023-07-20T08:44:19;3.17;;;1.00;;
80257;SDS011;69565;37.974;23.708;2023-07-20T08:46:45;1.83;;;1.00;;
80257;SDS011;69565;37.974;23.708;2023-07-20T08:49:12;1.08;;;0.90;;
80257;SDS011;69565;37.974;23.708;2023-07-20T08:51:40;5.47;;;1.00;;
80257;SDS011;69565;37.974;23.708;2023-07-20T08:54:06;2.40;;;0.98;;
80257;SDS011;69565;37.974;23.708;2023-07-20T08:56:35;5.57;;;1.23;;
80257;SDS011;69565;37.974;23.708;2023-07-20T08:59:01;2.03;;;1.00;;
80257;SDS011;69565;37.974;23.708;2023-07-20T09:01:28;1.17;;;1.00;;
80257;SDS011;69565;37.974;23.708;2023-07-20T09:03:55;2.63;;;1.00;;
80257;SDS011;69565;37.974;23.708;2023-07-20T09:06:21;1.52;;;0.90;;
80257;SDS011;69565;37.974;23.708;2023-07-20T09:08:47;2.97;;;0.90;;
80257;SDS011;69565;37.974;23.708;2023-07-20T09:11:14;4.65;;;1.00;;
80257;SDS011;69565;37.974;23.708;2023-07-20T09:13:40;1.35;;;0.88;;
80257;SDS011;69565;37.974;23.708;2023-07-20T09:16:06;2.17;;;0.90;;
80257;SDS011;69565;37.974;23.708;2023-07-20T09:18:34;5.50;;;1.00;;
80257;SDS011;69565;37.974;23.708;2023-07-20T09:21:02;4.05;;;1.00;;
80257;SDS011;69565;37.974;23.708;2023-07-20T09:23:29;2.22;;;0.90;;
80257;SDS011;69565;37.974;23.708;2023-07-20T09:25:57;1.40;;;0.90;;
80257;SDS011;69565;37.974;23.708;2023-07-20T09:28:23;1.40;;;0.88;;
80257;SDS011;69565;37.974;23.708;2023-07-20T09:30:49;4.32;;;0.90;;
80257;SDS011;69565;37.974;23.708;2023-07-20T09:33:18;1.30;;;0.95;;
80257;SDS011;69565;37.974;23.708;2023-07-20T09:35:44;1.55;;;0.90;;
80257;SDS011;69565;37.974;23.708;2023-07-20T09:38:10;6.88;;;0.93;;
80257;SDS011;69565;37.974;23.708;2023-07-20T09:40:39;2.70;;;1.10;;
80257;SDS011;69565;37.974;23.708;2023-07-20T09:43:07;1.23;;;0.90;;
80257;SDS011;69565;37.974;23.708;2023-07-20T09:45:34;2.03;;;0.90;;
80257;SDS011;69565;37.974;23.708;2023-07-20T09:48:04;1.58;;;1.00;;
80257;SDS011;69565;37.974;23.708;2023-07-20T09:50:31;1.25;;;0.80;;
80257;SDS011;69565;37.974;23.708;2023-07-20T09:52:58;1.98;;;0.90;;
80257;SDS011;69565;37.974;23.708;2023-07-20T09:55:25;2.00;;;0.82;;
80257;SDS011;69565;37.974;23.708;2023-07-20T09:57:52;1.05;;;0.80;;
80257;SDS011;69565;37.974;23.708;2023-07-20T10:00:18;2.55;;;0.80;;
80257;SDS011;69565;37.974;23.708;2023-07-20T10:02:45;2.40;;;0.80;;
80257;SDS011;69565;37.974;23.708;2023-07-20T10:05:14;3.55;;;0.82;;
80257;SDS011;69565;37.974;23.708;2023-07-20T10:07:46;1.00;;;0.80;;
80257;SDS011;69565;37.974;23.708;2023-07-20T10:10:14;2.72;;;0.70;;
80257;SDS011;69565;37.974;23.708;2023-07-20T10:12:42;1.30;;;0.90;;
80257;SDS011;69565;37.974;23.708;2023-07-20T10:17:39;2.55;;;0.80;;
80257;SDS011;69565;37.974;23.708;2023-07-20T10:20:15;0.90;;;0.80;;
80257;SDS011;69565;37.974;23.708;2023-07-20T10:22:44;1.15;;;0.80;;
80257;SDS011;69565;37.974;23.708;2023-07-20T10:25:13;2.75;;;0.95;;
80257;SDS011;69565;37.974;23.708;2023-07-20T10:27:43;1.35;;;1.00;;
80257;SDS011;69565;37.974;23.708;2023-07-20T10:30:09;1.58;;;0.93;;
80257;SDS011;69565;37.974;23.708;2023-07-20T10:32:37;3.83;;;0.90;;
80257;SDS011;69565;37.974;23.708;2023-07-20T10:35:13;1.35;;;0.90;;
80257;SDS011;69565;37.974;23.708;2023-07-20T10:37:49;1.25;;;0.90;;
80257;SDS011;69565;37.974;23.708;2023-07-20T10:43:00;3.92;;;0.90;;
80257;SDS011;69565;37.974;23.708;2023-07-20T10:45:37;6.63;;;1.00;;
80257;SDS011;69565;37.974;23.708;2023-07-20T10:48:08;5.07;;;0.93;;
80257;SDS011;69565;37.974;23.708;2023-07-20T10:50:42;2.60;;;1.20;;
80257;SDS011;69565;37.974;23.708;2023-07-20T10:53:12;2.85;;;0.90;;
80257;SDS011;69565;37.974;23.708;2023-07-20T10:55:47;3.47;;;0.85;;
80257;SDS011;69565;37.974;23.708;2023-07-20T10:58:15;1.27;;;0.93;;
80257;SDS011;69565;37.974;23.708;2023-07-20T11:00:58;2.35;;;1.00;;
80257;SDS011;69565;37.974;23.708;2023-07-20T11:03:30;2.47;;;0.90;;
80257;SDS011;69565;37.974;23.708;2023-07-20T11:08:48;1.48;;;0.82;;
80257;SDS011;69565;37.974;23.708;2023-07-20T11:11:23;1.88;;;0.90;;
80257;SDS011;69565;37.974;23.708;2023-07-20T11:13:59;1.35;;;0.90;;
80257;SDS011;69565;37.974;23.708;2023-07-20T11:16:45;1.10;;;0.90;;
80257;SDS011;69565;37.974;23.708;2023-07-20T11:19:15;1.20;;;1.00;;
80257;SDS011;69565;37.974;23.708;2023-07-20T11:21:44;1.00;;;0.90;;
80257;SDS011;69565;37.974;23.708;2023-07-20T11:24:13;2.25;;;1.00;;
80257;SDS011;69565;37.974;23.708;2023-07-20T11:26:39;4.25;;;1.20;;
80257;SDS011;69565;37.974;23.708;2023-07-20T11:29:09;3.42;;;1.02;;
80257;SDS011;69565;37.974;23.708;2023-07-20T11:31:35;3.83;;;1.10;;
80257;SDS011;69565;37.974;23.708;2023-07-20T11:34:02;2.75;;;1.08;;
80257;SDS011;69565;37.974;23.708;2023-07-20T11:36:28;1.50;;;1.02;;
80257;SDS011;69565;37.974;23.708;2023-07-20T11:38:54;5.57;;;1.10;;
80257;SDS011;69565;37.974;23.708;2023-07-20T11:41:20;2.83;;;0.98;;
80257;SDS011;69565;37.974;23.708;2023-07-20T11:43:46;2.83;;;1.10;;
80257;SDS011;69565;37.974;23.708;2023-07-20T11:46:12;2.63;;;1.20;;
80257;SDS011;69565;37.974;23.708;2023-07-20T11:48:39;4.90;;;1.30;;
80257;SDS011;69565;37.974;23.708;2023-07-20T11:51:05;1.90;;;0.93;;
80257;SDS011;69565;37.974;23.708;2023-07-20T11:53:31;1.80;;;1.55;;
80257;SDS011;69565;37.974;23.708;2023-07-20T11:55:58;1.52;;;1.30;;
80257;SDS011;69565;37.974;23.708;2023-07-20T11:58:24;1.65;;;1.00;;
80257;SDS011;69565;37.974;23.708;2023-07-20T12:00:52;2.05;;;1.00;;
80257;SDS011;69565;37.974;23.708;2023-07-20T12:03:19;1.85;;;0.95;;
80257;SDS011;69565;37.974;23.708;2023-07-20T12:05:46;2.40;;;1.05;;
80257;SDS011;69565;37.974;23.708;2023-07-20T12:08:12;2.38;;;1.10;;
80257;SDS011;69565;37.974;23.708;2023-07-20T12:10:39;1.40;;;1.10;;
80257;SDS011;69565;37.974;23.708;2023-07-20T12:13:09;1.30;;;1.20;;
80257;SDS011;69565;37.974;23.708;2023-07-20T12:15:36;1.63;;;1.10;;
80257;SDS011;69565;37.974;23.708;2023-07-20T12:18:02;2.95;;;1.10;;
80257;SDS011;69565;37.974;23.708;2023-07-20T12:23:08;1.60;;;1.20;;
80257;SDS011;69565;37.974;23.708;2023-07-20T12:28:12;1.23;;;1.00;;
80257;SDS011;69565;37.974;23.708;2023-07-20T12:30:40;1.58;;;1.05;;
80257;SDS011;69565;37.974;23.708;2023-07-20T12:33:07;1.42;;;1.17;;
80257;SDS011;69565;37.974;23.708;2023-07-20T12:35:33;1.13;;;1.00;;
80257;SDS011;69565;37.974;23.708;2023-07-20T12:37:59;1.42;;;1.10;;
80257;SDS011;69565;37.974;23.708;2023-07-20T12:40:25;1.50;;;0.95;;
80257;SDS011;69565;37.974;23.708;2023-07-20T12:42:51;1.20;;;1.00;;
80257;SDS011;69565;37.974;23.708;2023-07-20T12:45:17;1.10;;;1.00;;
80257;SDS011;69565;37.974;23.708;2023-07-20T12:47:43;1.70;;;1.15;;
80257;SDS011;69565;37.974;23.708;2023-07-20T12:50:12;2.92;;;1.13;;
80257;SDS011;69565;37.974;23.708;2023-07-20T12:52:40;1.58;;;1.40;;
80257;SDS011;69565;37.974;23.708;2023-07-20T12:55:06;1.50;;;1.20;;
80257;SDS011;69565;37.974;23.708;2023-07-20T12:57:33;1.70;;;1.60;;
80257;SDS011;69565;37.974;23.708;2023-07-20T13:00:00;1.60;;;1.50;;
80257;SDS011;69565;37.974;23.708;2023-07-20T13:02:29;1.42;;;1.15;;
80257;SDS011;69565;37.974;23.708;2023-07-20T13:04:59;1.10;;;1.00;;
80257;SDS011;69565;37.974;23.708;2023-07-20T13:07:34;1.42;;;1.00;;
80257;SDS011;69565;37.974;23.708;2023-07-20T13:10:01;1.27;;;1.00;;
80257;SDS011;69565;37.974;23.708;2023-07-20T13:12:27;1.30;;;1.10;;
80257;SDS011;69565;37.974;23.708;2023-07-20T13:14:54;1.27;;;1.10;;
80257;SDS011;69565;37.974;23.708;2023-07-20T13:17:21;1.00;;;0.80;;
80257;SDS011;69565;37.974;23.708;2023-07-20T13:19:52;1.20;;;0.90;;
80257;SDS011;69565;37.974;23.708;2023-07-20T13:22:17;1.10;;;1.00;;
80257;SDS011;69565;37.974;23.708;2023-07-20T13:24:48;1.70;;;0.80;;
80257;SDS011;69565;37.974;23.708;2023-07-20T13:27:14;1.10;;;0.80;;
80257;SDS011;69565;37.974;23.708;2023-07-20T13:29:41;3.67;;;0.80;;
80257;SDS011;69565;37.974;23.708;2023-07-20T13:32:07;0.88;;;0.80;;
80257;SDS011;69565;37.974;23.708;2023-07-20T13:34:33;1.88;;;0.80;;
80257;SDS011;69565;37.974;23.708;2023-07-20T13:37:01;0.85;;;0.70;;
80257;SDS011;69565;37.974;23.708;2023-07-20T13:39:27;0.80;;;0.73;;
80257;SDS011;69565;37.974;23.708;2023-07-20T13:41:53;0.98;;;0.77;;
80257;SDS011;69565;37.974;23.708;2023-07-20T13:44:19;0.80;;;0.70;;
80257;SDS011;69565;37.974;23.708;2023-07-20T13:46:46;0.93;;;0.70;;
80257;SDS011;69565;37.974;23.708;2023-07-20T13:49:15;0.90;;;0.70;;
80257;SDS011;69565;37.974;23.708;2023-07-20T13:51:44;0.93;;;0.70;;
80257;SDS011;69565;37.974;23.708;2023-07-20T13:54:09;0.88;;;0.70;;
80257;SDS011;69565;37.974;23.708;2023-07-20T13:56:36;0.70;;;0.68;;
80257;SDS011;69565;37.974;23.708;2023-07-20T13:59:02;1.00;;;0.70;;
80257;SDS011;69565;37.974;23.708;2023-07-20T14:01:28;2.35;;;0.65;;
80257;SDS011;69565;37.974;23.708;2023-07-20T14:03:55;1.30;;;0.60;;
80257;SDS011;69565;37.974;23.708;2023-07-20T14:06:21;0.60;;;0.60;;
80257;SDS011;69565;37.974;23.708;2023-07-20T14:08:47;3.53;;;0.60;;
80257;SDS011;69565;37.974;23.708;2023-07-20T14:11:14;0.70;;;0.60;;
80257;SDS011;69565;37.974;23.708;2023-07-20T14:13:39;5.10;;;0.60;;
80257;SDS011;69565;37.974;23.708;2023-07-20T14:16:05;0.85;;;0.52;;
80257;SDS011;69565;37.974;23.708;2023-07-20T14:18:31;0.60;;;0.60;;
80257;SDS011;69565;37.974;23.708;2023-07-20T14:20:57;1.02;;;0.60;;
80257;SDS011;69565;37.974;23.708;2023-07-20T14:23:22;1.60;;;0.60;;
80257;SDS011;69565;37.974;23.708;2023-07-20T14:25:48;0.75;;;0.60;;
80257;SDS011;69565;37.974;23.708;2023-07-20T14:28:14;0.50;;;0.50;;
80257;SDS011;69565;37.974;23.708;2023-07-20T14:30:43;0.65;;;0.60;;
80257;SDS011;69565;37.974;23.708;2023-07-20T14:33:09;0.50;;;0.50;;
80257;SDS011;69565;37.974;23.708;2023-07-20T14:35:34;0.60;;;0.50;;
80257;SDS011;69565;37.974;23.708;2023-07-20T14:38:00;2.97;;;0.60;;
80257;SDS011;69565;37.974;23.708;2023-07-20T14:40:26;0.60;;;0.60;;
80257;SDS011;69565;37.974;23.708;2023-07-20T14:42:52;0.50;;;0.50;;
80257;SDS011;69565;37.974;23.708;2023-07-20T14:45:18;0.80;;;0.60;;
80257;SDS011;69565;37.974;23.708;2023-07-20T14:47:44;0.63;;;0.52;;
80257;SDS011;69565;37.974;23.708;2023-07-20T14:50:10;0.70;;;0.60;;
80257;SDS011;69565;37.974;23.708;2023-07-20T14:52:36;2.70;;;0.60;;